createdAt,value
2023-04-23T00:00:25.718Z,95628.72
2023-04-23T00:02:54.601Z,95594.16
2023-04-23T00:05:23.507Z,95622.41
2023-04-23T00:07:50.617Z,95615.22
2023-04-23T00:10:18.439Z,95591.84
2023-04-23T00:12:46.069Z,95609.06
2023-04-23T00:15:14.337Z,95591.03
2023-04-23T00:17:41.227Z,95569.78
2023-04-23T00:20:09.427Z,95599.31
2023-04-23T00:22:36.365Z,95567.28
2023-04-23T00:25:03.550Z,95555.69
2023-04-23T00:27:30.587Z,95562.88
2023-04-23T00:29:57.480Z,95563.88
2023-04-23T00:32:24.678Z,95578.19
2023-04-23T00:34:51.992Z,95582.59
2023-04-23T00:37:18.808Z,95569.00
2023-04-23T00:39:45.829Z,95563.16
2023-04-23T00:42:14.120Z,95557.28
2023-04-23T00:44:44.505Z,95587.78
2023-04-23T00:47:12.522Z,95598.50
2023-04-23T00:49:39.706Z,95589.84
2023-04-23T00:52:06.969Z,95587.41
2023-04-23T00:54:34.266Z,95583.19
2023-04-23T00:57:02.175Z,95594.50
2023-04-23T00:59:29.749Z,95587.72
2023-04-23T01:01:56.755Z,95579.25
2023-04-23T01:04:28.000Z,95596.56
2023-04-23T01:06:56.100Z,95567.13
2023-04-23T01:09:24.124Z,95573.56
2023-04-23T01:11:51.762Z,95591.44
2023-04-23T01:14:19.101Z,95588.72
2023-04-23T01:16:47.273Z,95581.09
2023-04-23T01:19:16.337Z,95586.22
2023-04-23T01:21:43.301Z,95582.66
2023-04-23T01:24:11.703Z,95574.78
2023-04-23T01:26:39.992Z,95559.00
2023-04-23T01:29:07.559Z,95572.47
2023-04-23T01:31:34.874Z,95562.59
2023-04-23T01:34:02.203Z,95573.41
2023-04-23T01:36:30.027Z,95575.63
2023-04-23T01:38:57.463Z,95594.53
2023-04-23T01:41:24.356Z,95591.31
2023-04-23T01:43:51.360Z,95585.50
2023-04-23T01:46:18.414Z,95576.50
2023-04-23T01:48:45.433Z,95565.84
2023-04-23T01:51:12.322Z,95568.19
2023-04-23T01:53:39.174Z,95587.75
2023-04-23T01:56:10.009Z,95590.50
2023-04-23T01:58:37.028Z,95568.00
2023-04-23T02:01:03.884Z,95592.84
2023-04-23T02:03:32.378Z,95584.72
2023-04-23T02:06:00.381Z,95592.25
2023-04-23T02:08:28.510Z,95565.97
2023-04-23T02:10:55.401Z,95555.75
2023-04-23T02:13:22.504Z,95571.09
2023-04-23T02:15:49.559Z,95590.25
2023-04-23T02:18:17.066Z,95592.53
2023-04-23T02:20:44.279Z,95596.28
2023-04-23T02:23:12.356Z,95583.25
2023-04-23T02:25:39.501Z,95581.81
2023-04-23T02:28:07.955Z,95587.56
2023-04-23T02:30:35.607Z,95602.09
2023-04-23T02:33:04.061Z,95583.06
2023-04-23T02:35:31.663Z,95591.97
2023-04-23T02:37:58.650Z,95587.22
2023-04-23T02:40:25.586Z,95588.69
2023-04-23T02:42:52.497Z,95549.53
2023-04-23T02:45:19.358Z,95568.66
2023-04-23T02:47:46.202Z,95560.09
2023-04-23T02:50:13.279Z,95585.06
2023-04-23T02:52:40.201Z,95565.97
2023-04-23T02:55:07.974Z,95606.47
2023-04-23T02:57:35.073Z,95571.25
2023-04-23T03:00:02.008Z,95574.59
2023-04-23T03:02:35.961Z,95599.13
2023-04-23T03:05:03.849Z,95605.53
2023-04-23T03:07:30.828Z,95598.81
2023-04-23T03:09:58.193Z,95593.41
2023-04-23T03:12:25.262Z,95558.25
2023-04-23T03:14:52.136Z,95586.91
2023-04-23T03:17:20.171Z,95566.63
2023-04-23T03:19:49.058Z,95593.00
2023-04-23T03:22:16.142Z,95581.31
2023-04-23T03:24:43.322Z,95600.91
2023-04-23T03:27:10.510Z,95626.81
2023-04-23T03:29:37.359Z,95602.69
2023-04-23T03:32:04.392Z,95613.09
2023-04-23T03:34:31.711Z,95603.63
2023-04-23T03:36:58.753Z,95624.19
2023-04-23T03:39:25.860Z,95616.84
2023-04-23T03:41:54.662Z,95595.03
2023-04-23T03:44:25.491Z,95605.63
2023-04-23T03:46:52.683Z,95615.84
2023-04-23T03:49:20.901Z,95597.53
2023-04-23T03:51:47.821Z,95577.69
2023-04-23T03:54:15.619Z,95593.97
2023-04-23T03:56:53.300Z,95613.63
2023-04-23T03:59:26.809Z,95572.28
2023-04-23T04:01:56.192Z,95611.75
2023-04-23T04:04:25.588Z,95606.03
2023-04-23T04:06:52.680Z,95596.91
2023-04-23T04:09:19.595Z,95602.75
2023-04-23T04:11:46.476Z,95605.72
2023-04-23T04:14:13.502Z,95622.91
2023-04-23T04:16:41.086Z,95615.09
2023-04-23T04:19:08.034Z,95596.09
2023-04-23T04:21:34.866Z,95610.31
2023-04-23T04:24:07.974Z,95636.56
2023-04-23T04:26:35.078Z,95624.47
2023-04-23T04:29:02.065Z,95613.22
2023-04-23T04:31:29.310Z,95629.16
2023-04-23T04:33:56.207Z,95628.47
2023-04-23T04:36:25.424Z,95626.41
2023-04-23T04:38:52.285Z,95653.94
2023-04-23T04:41:20.256Z,95632.47
2023-04-23T04:43:48.616Z,95643.03
2023-04-23T04:46:15.826Z,95610.69
2023-04-23T04:48:42.677Z,95624.56
2023-04-23T04:51:09.501Z,95650.78
2023-04-23T04:53:36.363Z,95658.13
2023-04-23T04:56:03.243Z,95646.34
2023-04-23T04:58:30.120Z,95644.47
2023-04-23T05:00:57.035Z,95650.72
2023-04-23T05:03:24.066Z,95624.94
2023-04-23T05:05:50.974Z,95631.25
2023-04-23T05:08:21.583Z,95645.13
2023-04-23T05:10:50.658Z,95658.25
2023-04-23T05:13:18.084Z,95647.91
2023-04-23T05:15:46.464Z,95654.31
2023-04-23T05:18:13.292Z,95659.94
2023-04-23T05:20:40.254Z,95653.53
2023-04-23T05:23:07.131Z,95629.34
2023-04-23T05:25:34.837Z,95642.63
2023-04-23T05:28:01.834Z,95611.28
2023-04-23T05:30:28.851Z,95624.72
2023-04-23T05:32:55.733Z,95653.38
2023-04-23T05:35:22.672Z,95665.56
2023-04-23T05:37:49.533Z,95639.53
2023-04-23T05:40:16.436Z,95649.53
2023-04-23T05:42:43.264Z,95672.84
2023-04-23T05:45:10.538Z,95654.72
2023-04-23T05:47:37.558Z,95665.06
2023-04-23T05:50:05.785Z,95700.50
2023-04-23T05:52:33.773Z,95681.91
2023-04-23T05:55:00.624Z,95692.78
2023-04-23T05:57:27.444Z,95645.06
2023-04-23T05:59:54.287Z,95670.13
2023-04-23T06:02:23.955Z,95715.72
2023-04-23T06:04:52.681Z,95678.47
2023-04-23T06:07:20.031Z,95682.59
2023-04-23T06:09:46.937Z,95677.00
2023-04-23T06:12:13.778Z,95680.06
2023-04-23T06:14:41.148Z,95690.44
2023-04-23T06:17:08.219Z,95697.34
2023-04-23T06:19:35.075Z,95697.84
2023-04-23T06:22:02.058Z,95701.03
2023-04-23T06:24:28.909Z,95734.63
2023-04-23T06:26:56.435Z,95707.38
2023-04-23T06:29:24.466Z,95716.34
2023-04-23T06:32:01.533Z,95708.50
2023-04-23T06:34:28.376Z,95706.72
2023-04-23T06:36:55.438Z,95732.81
2023-04-23T06:39:22.361Z,95711.75
2023-04-23T06:41:49.253Z,95693.84
2023-04-23T06:44:22.511Z,95730.44
2023-04-23T06:46:52.371Z,95698.97
2023-04-23T06:49:19.223Z,95714.66
2023-04-23T06:51:46.205Z,95737.00
2023-04-23T06:54:13.174Z,95731.28
2023-04-23T06:56:40.034Z,95725.31
2023-04-23T06:59:06.998Z,95719.78
2023-04-23T07:01:36.463Z,95722.50
2023-04-23T07:04:03.347Z,95726.03
2023-04-23T07:06:30.227Z,95708.19
2023-04-23T07:08:57.075Z,95722.59
2023-04-23T07:11:24.258Z,95678.88
2023-04-23T07:13:51.132Z,95716.38
2023-04-23T07:16:20.407Z,95720.56
2023-04-23T07:18:49.289Z,95735.91
2023-04-23T07:21:16.251Z,95724.72
2023-04-23T07:23:43.131Z,95716.66
2023-04-23T07:26:09.935Z,95733.28
2023-04-23T07:28:36.763Z,95734.47
2023-04-23T07:31:03.675Z,95693.47
2023-04-23T07:33:30.527Z,95735.94
2023-04-23T07:35:57.327Z,95712.00
2023-04-23T07:38:24.170Z,95716.94
2023-04-23T07:40:51.146Z,95731.25
2023-04-23T07:43:18.097Z,95741.72
2023-04-23T07:45:45.015Z,95726.03
2023-04-23T07:48:12.188Z,95715.69
2023-04-23T07:50:39.108Z,95715.75
2023-04-23T07:53:05.964Z,95721.47
2023-04-23T07:55:32.816Z,95750.47
2023-04-23T07:58:00.172Z,95718.13
2023-04-23T08:00:27.126Z,95742.41
2023-04-23T08:02:54.235Z,95748.72
2023-04-23T08:05:21.552Z,95730.31
2023-04-23T08:07:48.430Z,95731.22
2023-04-23T08:10:15.341Z,95723.53
2023-04-23T08:12:42.341Z,95698.25
2023-04-23T08:15:09.863Z,95740.44
2023-04-23T08:17:40.825Z,95716.66
2023-04-23T08:20:08.541Z,95724.03
2023-04-23T08:22:35.452Z,95700.25
2023-04-23T08:25:02.394Z,95723.50
2023-04-23T08:27:29.509Z,95722.72
2023-04-23T08:30:12.362Z,95703.66
2023-04-23T08:32:41.012Z,95724.72
2023-04-23T08:35:08.551Z,95706.78
2023-04-23T08:37:35.524Z,95714.75
2023-04-23T08:40:02.392Z,95710.09
2023-04-23T08:42:38.312Z,95728.47
2023-04-23T08:45:06.096Z,95730.06
2023-04-23T08:47:34.009Z,95733.84
2023-04-23T08:50:01.759Z,95721.38
2023-04-23T08:52:33.756Z,95745.91
2023-04-23T08:55:04.952Z,95746.94
2023-04-23T08:57:31.993Z,95703.16
2023-04-23T09:00:05.828Z,95723.94
2023-04-23T09:02:35.156Z,95716.88
2023-04-23T09:05:04.691Z,95734.25
2023-04-23T09:07:31.713Z,95740.25
2023-04-23T09:09:58.825Z,95707.72
2023-04-23T09:12:26.097Z,95703.25
2023-04-23T09:14:56.658Z,95698.84
2023-04-23T09:17:24.724Z,95708.06
2023-04-23T09:19:54.306Z,95734.91
2023-04-23T09:22:47.644Z,95734.06
2023-04-23T09:25:22.865Z,95730.81
2023-04-23T09:27:51.792Z,95728.88
2023-04-23T09:30:20.273Z,95727.34
2023-04-23T09:32:47.782Z,95691.53
2023-04-23T09:35:17.835Z,95715.88
2023-04-23T09:37:49.709Z,95743.22
2023-04-23T09:40:20.644Z,95737.53
2023-04-23T09:42:50.170Z,95739.13
2023-04-23T09:45:17.637Z,95723.00
2023-04-23T09:47:56.087Z,95737.03
2023-04-23T09:50:39.418Z,95687.75
2023-04-23T09:53:08.423Z,95695.16
2023-04-23T09:55:39.321Z,95713.38
2023-04-23T09:58:11.044Z,95698.56
2023-04-23T10:00:40.116Z,95711.69
2023-04-23T10:03:09.143Z,95720.53
2023-04-23T10:08:14.238Z,95703.06
2023-04-23T10:10:55.122Z,95721.03
2023-04-23T10:13:28.811Z,95693.03
2023-04-23T10:15:59.037Z,95685.22
2023-04-23T10:18:33.228Z,95706.03
2023-04-23T10:21:02.993Z,95703.59
2023-04-23T10:23:30.818Z,95673.47
2023-04-23T10:25:59.612Z,95715.16
2023-04-23T10:28:32.167Z,95726.66
2023-04-23T10:31:00.058Z,95686.09
2023-04-23T10:33:31.714Z,95718.00
2023-04-23T10:36:00.588Z,95690.91
2023-04-23T10:38:28.596Z,95668.69
2023-04-23T10:40:58.490Z,95703.78
2023-04-23T10:43:25.577Z,95667.69
2023-04-23T10:45:52.658Z,95688.13
2023-04-23T10:48:20.922Z,95668.69
2023-04-23T10:51:06.877Z,95662.44
2023-04-23T10:53:36.499Z,95683.34
2023-04-23T10:56:07.963Z,95709.63
2023-04-23T10:58:52.063Z,95705.06
2023-04-23T11:01:19.875Z,95655.06
2023-04-23T11:03:48.176Z,95666.53
2023-04-23T11:06:39.688Z,95663.53
2023-04-23T11:09:35.110Z,95677.78
2023-04-23T11:12:03.300Z,95698.22
2023-04-23T11:14:45.909Z,95693.75
2023-04-23T11:17:14.292Z,95680.91
2023-04-23T11:19:42.993Z,95655.44
2023-04-23T11:22:15.451Z,95677.41
2023-04-23T11:24:44.979Z,95642.28
2023-04-23T11:27:17.556Z,95671.22
2023-04-23T11:29:46.753Z,95663.84
2023-04-23T11:32:16.985Z,95670.34
2023-04-23T11:34:45.768Z,95659.38
2023-04-23T11:37:15.648Z,95672.91
2023-04-23T11:39:44.668Z,95662.03
2023-04-23T11:42:13.381Z,95668.34
2023-04-23T11:44:44.854Z,95620.31
2023-04-23T11:47:13.459Z,95666.13
2023-04-23T11:49:45.490Z,95652.88
2023-04-23T11:52:13.205Z,95641.13
2023-04-23T11:54:41.583Z,95612.69
2023-04-23T11:57:08.823Z,95634.78
2023-04-23T11:59:35.828Z,95637.78
2023-04-23T12:02:02.761Z,95608.34
2023-04-23T12:04:31.420Z,95642.47
2023-04-23T12:06:59.522Z,95585.91
2023-04-23T12:09:28.107Z,95636.63
2023-04-23T12:11:57.105Z,95626.13
2023-04-23T12:14:30.236Z,95620.56
2023-04-23T12:16:59.015Z,95630.16
2023-04-23T12:19:28.640Z,95627.34
2023-04-23T12:22:03.245Z,95616.56
2023-04-23T12:24:44.938Z,95639.16
2023-04-23T12:27:16.179Z,95632.34
2023-04-23T12:29:43.606Z,95629.59
2023-04-23T12:32:12.217Z,95624.66
2023-04-23T12:34:53.350Z,95596.28
2023-04-23T12:37:31.196Z,95617.06
2023-04-23T12:39:59.816Z,95615.88
2023-04-23T12:42:27.282Z,95628.34
2023-04-23T12:44:56.570Z,95645.03
2023-04-23T12:47:23.650Z,95626.53
2023-04-23T12:49:54.100Z,95595.97
2023-04-23T12:52:21.310Z,95609.00
2023-04-23T12:54:52.362Z,95616.97
2023-04-23T12:57:23.554Z,95608.19
2023-04-23T12:59:51.013Z,95595.25
2023-04-23T13:02:18.234Z,95574.38
2023-04-23T13:04:45.232Z,95567.53
2023-04-23T13:07:12.206Z,95567.53
2023-04-23T13:09:39.201Z,95585.84
2023-04-23T13:12:06.360Z,95572.47
2023-04-23T13:14:33.430Z,95563.72
2023-04-23T13:17:00.512Z,95547.72
2023-04-23T13:19:27.608Z,95555.72
2023-04-23T13:21:54.676Z,95563.69
2023-04-23T13:24:21.722Z,95561.84
2023-04-23T13:27:09.079Z,95539.72
2023-04-23T13:29:36.125Z,95531.31
2023-04-23T13:32:03.473Z,95555.34
2023-04-23T13:34:31.070Z,95524.06
2023-04-23T13:36:58.761Z,95564.34
2023-04-23T13:39:25.846Z,95524.81
2023-04-23T13:42:06.245Z,95528.63
2023-04-23T13:44:35.698Z,95523.72
2023-04-23T13:47:02.899Z,95529.38
2023-04-23T13:49:29.851Z,95531.94
2023-04-23T13:52:01.232Z,95480.66
2023-04-23T13:54:28.230Z,95497.81
2023-04-23T13:56:57.891Z,95506.53
2023-04-23T13:59:26.112Z,95505.78
2023-04-23T14:01:53.266Z,95493.53
2023-04-23T14:04:24.391Z,95475.31
2023-04-23T14:06:51.464Z,95505.38
2023-04-23T14:09:19.254Z,95482.13
2023-04-23T14:11:46.247Z,95440.19
2023-04-23T14:14:13.189Z,95478.84
2023-04-23T14:16:40.070Z,95488.69
2023-04-23T14:19:07.170Z,95491.94
2023-04-23T14:21:36.000Z,95454.63
2023-04-23T14:24:12.865Z,95461.97
2023-04-23T14:29:29.371Z,95487.50
2023-04-23T14:31:56.639Z,95471.75
2023-04-23T14:34:23.609Z,95474.88
2023-04-23T14:36:53.252Z,95452.34
2023-04-23T14:39:22.842Z,95452.25
2023-04-23T14:41:49.772Z,95439.69
2023-04-23T14:44:16.617Z,95434.63
2023-04-23T14:46:43.744Z,95431.22
2023-04-23T14:49:11.164Z,95421.75
2023-04-23T14:51:38.436Z,95440.13
2023-04-23T14:54:05.571Z,95423.81
2023-04-23T14:56:32.491Z,95426.44
2023-04-23T14:58:59.357Z,95411.81
2023-04-23T15:01:27.147Z,95422.81
2023-04-23T15:03:54.356Z,95350.91
2023-04-23T15:06:21.528Z,95416.47
2023-04-23T15:08:49.002Z,95424.63
2023-04-23T15:11:16.108Z,95415.50
2023-04-23T15:14:23.627Z,95416.34
2023-04-23T15:16:50.677Z,95393.66
2023-04-23T15:19:19.109Z,95389.91
2023-04-23T15:21:47.342Z,95418.75
2023-04-23T15:24:15.749Z,95418.81
2023-04-23T15:26:43.543Z,95408.16
2023-04-23T15:29:10.765Z,95373.97
2023-04-23T15:31:38.417Z,95384.34
2023-04-23T15:34:07.586Z,95396.69
2023-04-23T15:36:35.887Z,95401.22
2023-04-23T15:39:02.891Z,95359.31
2023-04-23T15:41:29.826Z,95360.22
2023-04-23T15:43:56.930Z,95371.59
2023-04-23T15:46:23.830Z,95364.09
2023-04-23T15:48:50.768Z,95379.72
2023-04-23T15:51:18.008Z,95390.34
2023-04-23T15:53:44.964Z,95399.97
2023-04-23T15:56:11.942Z,95384.91
2023-04-23T15:58:38.970Z,95370.31
2023-04-23T16:01:07.544Z,95349.72
2023-04-23T16:03:34.965Z,95390.25
2023-04-23T16:06:02.191Z,95369.16
2023-04-23T16:08:29.334Z,95353.19
2023-04-23T16:10:58.336Z,95363.28
2023-04-23T16:13:25.527Z,95315.09
2023-04-23T16:15:53.268Z,95343.34
2023-04-23T16:18:20.260Z,95336.78
2023-04-23T16:20:50.060Z,95337.81
2023-04-23T16:23:17.164Z,95341.59
2023-04-23T16:25:44.834Z,95324.13
2023-04-23T16:28:14.079Z,95346.19
2023-04-23T16:30:41.114Z,95328.31
2023-04-23T16:33:09.701Z,95281.13
2023-04-23T16:35:36.780Z,95314.47
2023-04-23T16:38:03.691Z,95335.13
2023-04-23T16:40:30.576Z,95305.78
2023-04-23T16:42:57.493Z,95315.97
2023-04-23T16:45:24.495Z,95305.09
2023-04-23T16:47:51.362Z,95303.53
2023-04-23T16:50:18.359Z,95290.31
2023-04-23T16:52:45.205Z,95302.50
2023-04-23T16:55:12.099Z,95316.19
2023-04-23T16:57:39.109Z,95314.69
2023-04-23T17:00:06.823Z,95290.31
2023-04-23T17:02:34.745Z,95280.06
2023-04-23T17:05:02.077Z,95312.00
2023-04-23T17:07:29.401Z,95314.69
2023-04-23T17:09:56.303Z,95301.34
2023-04-23T17:12:23.277Z,95320.75
2023-04-23T17:14:50.187Z,95305.53
2023-04-23T17:17:17.053Z,95301.75
2023-04-23T17:19:45.886Z,95291.84
2023-04-23T17:22:12.855Z,95291.47
2023-04-23T17:24:39.875Z,95260.28
2023-04-23T17:27:06.768Z,95258.78
2023-04-23T17:29:33.633Z,95280.06
2023-04-23T17:32:01.452Z,95268.66
2023-04-23T17:34:28.507Z,95249.63
2023-04-23T17:36:56.183Z,95294.53
2023-04-23T17:39:23.969Z,95290.72
2023-04-23T17:41:50.906Z,95282.72
2023-04-23T17:44:17.915Z,95273.59
2023-04-23T17:46:44.758Z,95264.06
2023-04-23T17:49:11.643Z,95291.81
2023-04-23T17:51:38.647Z,95273.94
2023-04-23T17:54:06.212Z,95265.97
2023-04-23T17:56:33.121Z,95259.47
2023-04-23T17:59:00.075Z,95276.59
2023-04-23T18:01:27.247Z,95265.56
2023-04-23T18:03:54.326Z,95268.91
2023-04-23T18:06:22.868Z,95251.03
2023-04-23T18:08:49.825Z,95263.59
2023-04-23T18:11:16.876Z,95255.97
2023-04-23T18:13:44.121Z,95259.00
2023-04-23T18:16:11.268Z,95278.03
2023-04-23T18:18:38.208Z,95249.88
2023-04-23T18:21:05.311Z,95233.09
2023-04-23T18:23:32.376Z,95268.88
2023-04-23T18:26:01.800Z,95251.75
2023-04-23T18:28:29.286Z,95256.69
2023-04-23T18:31:02.672Z,95249.78
2023-04-23T18:34:03.016Z,95263.84
2023-04-23T18:36:36.602Z,95244.44
2023-04-23T18:39:04.189Z,95236.03
2023-04-23T18:41:31.368Z,95248.94
2023-04-23T18:44:00.410Z,95240.50
2023-04-23T18:46:30.386Z,95230.19
2023-04-23T18:49:06.979Z,95244.28
2023-04-23T18:51:43.022Z,95259.91
2023-04-23T18:54:10.009Z,95240.81
2023-04-23T18:56:36.944Z,95242.72
2023-04-23T18:59:03.913Z,95230.56
2023-04-23T19:01:31.339Z,95246.09
2023-04-23T19:03:59.110Z,95222.72
2023-04-23T19:06:26.962Z,95244.03
2023-04-23T19:08:54.416Z,95240.22
2023-04-23T19:11:21.849Z,95174.31
2023-04-23T19:13:48.792Z,95229.06
2023-04-23T19:16:18.577Z,95227.91
2023-04-23T19:18:46.245Z,95209.16
2023-04-23T19:21:13.387Z,95180.63
2023-04-23T19:23:40.512Z,95228.25
2023-04-23T19:26:07.626Z,95226.31
2023-04-23T19:28:37.668Z,95237.41
2023-04-23T19:31:07.971Z,95251.88
2023-04-23T19:33:35.146Z,95214.81
2023-04-23T19:36:02.085Z,95267.81
2023-04-23T19:38:29.057Z,95226.91
2023-04-23T19:40:57.117Z,95223.81
2023-04-23T19:43:24.084Z,95242.84
2023-04-23T19:45:51.055Z,95220.75
2023-04-23T19:48:17.955Z,95202.31
2023-04-23T19:50:44.970Z,95207.63
2023-04-23T19:53:11.903Z,95219.03
2023-04-23T19:55:38.930Z,95223.19
2023-04-23T19:58:08.561Z,95199.63
2023-04-23T20:00:39.271Z,95229.75
2023-04-23T20:03:07.871Z,95210.72
2023-04-23T20:05:35.151Z,95240.47
2023-04-23T20:08:04.590Z,95230.09
2023-04-23T20:10:32.038Z,95223.56
2023-04-23T20:13:00.001Z,95249.09
2023-04-23T20:15:26.969Z,95282.22
2023-04-23T20:17:55.032Z,95315.66
2023-04-23T20:20:22.115Z,95308.06
2023-04-23T20:22:49.093Z,95358.06
2023-04-23T20:25:16.065Z,95365.25
2023-04-23T20:27:43.092Z,95337.84
2023-04-23T20:30:11.533Z,95366.84
2023-04-23T20:32:38.499Z,95353.41
2023-04-23T20:35:06.196Z,95331.84
2023-04-23T20:37:35.496Z,95322.38
2023-04-23T20:40:02.456Z,95348.88
2023-04-23T20:42:29.440Z,95331.56
2023-04-23T20:44:56.389Z,95347.28
2023-04-23T20:47:24.020Z,95305.97
2023-04-23T20:49:51.189Z,95321.34
2023-04-23T20:52:18.131Z,95219.31
2023-04-23T20:54:45.610Z,95299.50
2023-04-23T20:57:12.604Z,95248.75
2023-04-23T20:59:39.821Z,95253.78
2023-04-23T21:02:07.769Z,95272.31
2023-04-23T21:04:34.830Z,95262.38
2023-04-23T21:07:01.953Z,95273.75
2023-04-23T21:09:28.883Z,95284.03
2023-04-23T21:11:57.212Z,95260.38
2023-04-23T21:14:24.263Z,95278.75
2023-04-23T21:16:51.403Z,95300.19
2023-04-23T21:19:18.383Z,95222.47
2023-04-23T21:21:45.324Z,95287.88
2023-04-23T21:24:12.287Z,95272.25
2023-04-23T21:26:39.442Z,95308.03
2023-04-23T21:29:06.406Z,95303.44
2023-04-23T21:31:45.490Z,95310.03
2023-04-23T21:34:12.689Z,95311.03
2023-04-23T21:36:39.669Z,95310.81
2023-04-23T21:39:08.249Z,95299.00
2023-04-23T21:41:36.197Z,95316.09
2023-04-23T21:44:03.252Z,95287.66
2023-04-23T21:46:32.299Z,95304.66
2023-04-23T21:48:59.456Z,95321.31
2023-04-23T21:51:26.395Z,95317.72
2023-04-23T21:53:53.259Z,95292.16
2023-04-23T21:56:21.536Z,95306.03
2023-04-23T21:58:48.437Z,95283.06
2023-04-23T22:01:15.376Z,95270.78
2023-04-23T22:03:46.860Z,95272.84
2023-04-23T22:06:16.114Z,95290.69
2023-04-23T22:08:44.892Z,95295.47
2023-04-23T22:11:13.273Z,95286.81
2023-04-23T22:13:40.679Z,95255.63
2023-04-23T22:16:20.280Z,95261.19
2023-04-23T22:18:54.268Z,95257.16
2023-04-23T22:21:21.276Z,95275.72
2023-04-23T22:23:48.239Z,95295.47
2023-04-23T22:26:15.123Z,95272.03
2023-04-23T22:28:43.361Z,95254.22
2023-04-23T22:31:10.559Z,95292.72
2023-04-23T22:33:37.877Z,95247.50
2023-04-23T22:36:05.689Z,95280.97
2023-04-23T22:38:32.983Z,95278.13
2023-04-23T22:40:59.895Z,95268.69
2023-04-23T22:43:26.836Z,95263.06
2023-04-23T22:45:53.853Z,95294.94
2023-04-23T22:48:21.518Z,95294.66
2023-04-23T22:50:51.268Z,95255.13
2023-04-23T22:53:19.756Z,95276.13
2023-04-23T22:55:47.415Z,95264.69
2023-04-23T22:58:14.589Z,95250.78
2023-04-23T23:00:41.884Z,95279.59
2023-04-23T23:03:08.845Z,95277.06
2023-04-23T23:05:36.028Z,95273.75
2023-04-23T23:08:03.068Z,95265.75
2023-04-23T23:10:30.324Z,95249.78
2023-04-23T23:12:57.229Z,95268.03
2023-04-23T23:15:24.088Z,95232.50
2023-04-23T23:17:51.341Z,95261.03
2023-04-23T23:20:40.700Z,95247.53
2023-04-23T23:23:07.846Z,95223.16
2023-04-23T23:25:38.468Z,95271.25
2023-04-23T23:28:05.846Z,95251.44
2023-04-23T23:30:32.932Z,95265.31
2023-04-23T23:33:00.129Z,95283.44
2023-04-23T23:35:27.113Z,95252.25
2023-04-23T23:37:53.989Z,95257.19
2023-04-23T23:40:21.222Z,95258.63
2023-04-23T23:42:48.084Z,95201.28
2023-04-23T23:45:15.063Z,95240.88
2023-04-23T23:47:42.230Z,95231.22
2023-04-23T23:50:09.581Z,95238.97
2023-04-23T23:52:36.523Z,95281.44
2023-04-23T23:55:03.703Z,95218.28
2023-04-23T23:57:30.636Z,95252.75
2023-04-23T23:59:57.574Z,95245.06
